Skip Navigation Links Skip Navigation Links

Current Weather

Aurora Muni, Aurora, Ill.

For information only: do not use for flight planning or navigation.
Latest weather
Observation time Sunday, October 13, 2019 5:52 PM CDT
Local time Sunday, October 13, 2019 6:07 PM CDT
Flight conditions Visual Meteorological Conditions
Winds
Wind direction West (280°)
Wind speed 13 mph
Wind gusting to 23 mph
Visibility 10 mi.
Sky condition
Ceiling 5,500 ft. overcast
Cloud layer overcast 5,500 ft.
Temperature 48°F
Dewpoint 33°F
Altimeter 29.88 in.Hg
Derived measurements
Relative humidity 56%
Wind chill 43°F
Density altitude 126 ft.
Sea-level pressure 29.89 in.Hg
Remarks
Automated weather observing station with precipitation discriminator.
METAR KARR 132252Z 28011G20KT 10SM OVC055 09/01 A2988 RMK AO2 SLP123 T00890006

Settings

Location code

InnerDrive.Weather 4.0.6770.0 Release CLR 4.0.30319.42000
Copyright ©2018 Inner Drive Technology. All rights reserved. Portions Copyright ©1986-2018 David Braverman.

Find weather

Site navigation


Skip Navigation Links

Place info

Page info

PayPal - The safer, easier way to pay online!

Return home.

Copyright ©2019 Inner Drive Technology. Purveyors of fine, hand-crafted computer software. Page printed 2019-10-13T23:07:00 UTC.